Harmon, Illinois
Current Conditions -  °F | °C
As of 2:15 PM on Friday 31 Oct 2014 (Local Time) from KSQI Reporting Station
Scattered Clouds Scattered Clouds  
Wind Chill: 35°   Ceiling: Unl
Heat Index: 45°   Visibility: 10mi
Dew Point: 21°   Wind: 25mph
Humidity: 39%   Direction: 10°N
Pressure: 30.31"   Gusts: 31mph
Location:  41.72°N, 89.55°W
Report Text: KSQI 311915Z AUTO 01022G27KT 10SM SCT048 07/M06 A3031 RMK AO1
Loading
Personal Weather Stations






























Interactive Weather Map New forecast layout! Learn more

10-Day Weather Forecast

Advertisements
Track Severe Weather on mobile